Flight Track Log - Related Links

Times and Time Zones

All times are in EDT time to prevent confusion due to time zone crossing. See the N2156B flight status page for this flight to view local times or setup timezone preferences in your user account.

Time Position Orientation Groundspeed Altitude Reporting Facility
EDT Latitude Longitude Course Direction KTS MPH feet Rate Location/Type
Sat 11:17:24 AM 40.7000 -73.4333 180° South 93 107 5,900  Level New York TRACON
Sat 11:18:24 AM 40.6833 -73.4333 180° South 93 107 2,300 -1,450 Descending New York TRACON
Sat 11:19:24 AM 40.6833 -73.4667 270° West 116 133 3,000 700 Climbing New York TRACON
Sat 11:20:24 AM 40.7167 -73.4333 37° Northeast 128 147 3,700 650 Climbing New York TRACON
Sat 11:21:24 AM 40.7333 -73.4167 37° Northeast 133 153 4,300 650 Climbing New York TRACON
Sat 11:22:24 AM 40.7667 -73.3833 37° Northeast 130 150 5,000 684 Climbing New York TRACON
Sat 11:23:18 AM 40.8000 -73.3500 37° Northeast 132 152 5,600 632 Climbing New York TRACON
Sat 11:24:18 AM 40.8333 -73.3333 21° North 134 154 6,200 550 Climbing New York TRACON
Sat 11:25:18 AM 40.8500 -73.3000 57° Northeast 138 159 6,700 450 Climbing New York TRACON
Sat 11:26:18 AM 40.8833 -73.2667 37° Northeast 141 162 7,100 211 Climbing New York TRACON
Sat 11:27:12 AM 40.9167 -73.2333 37° Northeast 159 183 7,100 53 Level New York TRACON
Sat 11:28:12 AM 40.9500 -73.2000 37° Northeast 166 191 7,200 100 Climbing New York TRACON
Sat 11:29:12 AM 40.9833 -73.1500 49° Northeast 167 192 7,300 -50 Climbing New York TRACON
Sat 11:30:12 AM 41.0000 -73.1000 66° East 172 198 7,100 -100 Descending New York TRACON
Sat 11:31:12 AM 41.0333 -73.0500 49° Northeast 170 196 7,100  Level New York TRACON
Sat 11:32:06 AM 41.0667 -73.0167 37° Northeast 168 193 7,100 -53 Level New York TRACON
Sat 11:33:06 AM 41.1000 -72.9667 48° Northeast 170 196 7,000 -53 Descending New York TRACON
Sat 11:34:00 AM 41.1167 -72.9167 66° East 172 198 7,000  Level New York TRACON
Sat 11:35:00 AM 41.1333 -72.8500 72° East 169 194 7,000 50 Level New York TRACON
Sat 11:36:00 AM 41.1333 -72.7833 90° East 169 194 7,100  Climbing New York TRACON
Sat 11:37:00 AM 41.1500 -72.7333 66° East 173 199 7,000 -50 Descending New York TRACON
Sat 11:38:00 AM 41.1667 -72.6667 72° East 171 197 7,000  Level New York TRACON
Sat 11:39:00 AM 41.1667 -72.6000 90° East 173 199 7,000  Level New York TRACON
Sat 11:40:00 AM 41.1833 -72.5500 66° East 172 198 7,000 -60 Level New York TRACON
Sat 11:40:40 AM 41.1769 -72.5089 102° East 205 236 6,900 -273 Descending Boston Center
Sat 11:42:12 AM 41.1250 -72.4814 158° South 149 171 6,400 -434 Descending Boston Center
Sat 11:43:12 AM 41.0811 -72.4539 155° Southeast 208 239 5,800 -626 Descending Boston Center
Sat 11:44:07 AM 41.0811 -72.3906 90° East 214 246 5,200 -446 Descending Boston Center
Sat 11:45:13 AM 41.0978 -72.3272 71° East 166 191 4,900 -142 Descending Boston Center
Sat 11:46:14 AM 41.1206 -72.2719 61° Northeast 155 178 4,900  Level Boston Center
Sat 11:47:24 AM 41.1414 -72.2169 63° Northeast 157 181 4,900  Level Boston Center
Sat 11:48:18 AM 41.1642 -72.1700 57° Northeast 159 183 4,900  Level Boston Center
Sat 11:49:19 AM 41.1828 -72.1175 65° Northeast 158 182 4,900  Level Boston Center
Sat 11:50:20 AM 41.2036 -72.0650 62° Northeast 160 184 4,900  Level Boston Center
Sat 11:51:20 AM 41.2261 -72.0094 62° Northeast 159 183 4,900  Level Boston Center
Sat 11:52:27 AM 41.2469 -71.9514 64° Northeast 156 180 4,900  Level Boston Center
Sat 11:53:27 AM 41.2694 -71.9017 59° Northeast 154 177 4,900  Level Boston Center
Sat 11:54:30 AM 41.2964 -71.8628 47° Northeast 152 175 4,900  Level Boston Center
Sat 11:55:31 AM 41.3297 -71.8236 41° Northeast 146 168 4,900  Level Boston Center
Sat 11:56:31 AM 41.3628 -71.7875 39° Northeast 149 171 4,900  Level Boston Center
Sat 11:57:27 AM 41.3939 -71.7567 37° Northeast 153 176 4,900 -259 Level Boston Center
Sat 11:58:27 AM 41.4289 -71.7203 38° Northeast 157 181 4,400 -545 Descending Boston Center
Sat 11:59:28 AM 41.4664 -71.6922 29° Northeast 162 186 3,800 -645 Descending Boston Center
Sat 12:00:28 PM 41.5081 -71.6833 North 154 177 3,100 -700 Descending Boston Center
Sat 12:01:28 PM 41.5353 -71.7081 326° Northwest 133 153 2,400 -574 Descending Boston Center
Sat 12:02:23 PM 41.5417 -71.7494 282° West 131 151 2,000 -205 Descending Boston Center
Sat 12:03:25 PM 41.5483 -71.7994 280° West 125 144 2,000  Level Boston Center
Sat 12:04:20 PM 41.5444 -71.8356 262° West 123 142 2,000  Level Boston Center
Sat 12:05:20 PM 41.5278 -71.8744 240° Southwest 113 130 2,000  Level Boston Center
Sat 12:06:33 PM 41.4925 -71.9081 216° Southwest 120 138 2,000  Level Boston Center
Sat 12:07:33 PM 41.4636 -71.9275 207° Southwest 121 139 2,000  Level Boston Center

Login

Don't have an account? Register now (free) for customized features, flight alerts, and more!